createdAt,value
2019-02-19T00:02:31.835Z,77.70
2019-02-19T00:05:12.290Z,77.60
2019-02-19T00:07:52.765Z,77.60
2019-02-19T00:10:33.060Z,76.90
2019-02-19T00:13:13.923Z,76.60
2019-02-19T00:15:53.513Z,75.90
2019-02-19T00:18:33.106Z,75.10
2019-02-19T00:21:14.593Z,74.30
2019-02-19T00:23:54.970Z,73.20
2019-02-19T00:26:34.574Z,72.90
2019-02-19T00:29:15.262Z,72.40
2019-02-19T00:31:56.557Z,72.00
2019-02-19T00:34:35.987Z,71.40
2019-02-19T00:37:15.739Z,69.80
2019-02-19T00:39:55.198Z,69.50
2019-02-19T00:42:36.728Z,69.40
2019-02-19T00:45:16.987Z,68.40
2019-02-19T00:47:58.618Z,67.30
2019-02-19T00:50:38.243Z,66.60
2019-02-19T00:53:19.616Z,65.80
2019-02-19T00:56:02.480Z,65.00
2019-02-19T00:58:42.116Z,65.30
2019-02-19T01:01:21.938Z,64.00
2019-02-19T01:04:01.097Z,63.30
2019-02-19T01:06:42.324Z,62.90
2019-02-19T01:09:21.972Z,62.80
2019-02-19T01:12:01.720Z,62.40
2019-02-19T01:14:41.381Z,61.70
2019-02-19T01:17:21.634Z,64.00
2019-02-19T01:20:01.149Z,64.30
2019-02-19T01:22:42.359Z,63.30
2019-02-19T01:25:24.923Z,64.10
2019-02-19T01:28:04.858Z,65.70
2019-02-19T01:30:44.557Z,65.70
2019-02-19T01:33:26.336Z,66.00
2019-02-19T01:36:05.841Z,64.20
2019-02-19T01:38:46.038Z,63.50
2019-02-19T01:41:25.559Z,62.70
2019-02-19T01:44:09.765Z,61.90
2019-02-19T01:46:50.660Z,58.80
2019-02-19T01:49:30.177Z,58.50
2019-02-19T01:52:09.639Z,57.80
2019-02-19T01:54:49.456Z,57.80
2019-02-19T01:57:32.624Z,58.00
2019-02-19T02:00:12.834Z,57.50
2019-02-19T02:02:53.194Z,59.60
2019-02-19T02:05:36.269Z,61.90
2019-02-19T02:08:17.283Z,61.60
2019-02-19T02:11:00.176Z,60.20
2019-02-19T02:13:47.091Z,58.40
2019-02-19T02:16:27.518Z,56.40
2019-02-19T02:19:07.435Z,56.10
2019-02-19T02:21:50.847Z,56.20
2019-02-19T02:24:31.430Z,54.70
2019-02-19T02:27:14.124Z,54.40
2019-02-19T02:29:54.054Z,55.60
2019-02-19T02:32:39.728Z,57.00
2019-02-19T02:35:20.849Z,58.50
2019-02-19T02:37:59.263Z,58.80
2019-02-19T02:40:40.290Z,59.10
2019-02-19T02:43:27.726Z,58.30
2019-02-19T02:46:08.368Z,59.10
2019-02-19T02:48:49.670Z,58.50
2019-02-19T02:51:30.074Z,60.20
2019-02-19T02:54:11.962Z,59.40
2019-02-19T02:56:51.562Z,59.00
2019-02-19T02:59:35.133Z,59.90
2019-02-19T03:02:20.270Z,58.70
2019-02-19T03:05:00.201Z,58.60
2019-02-19T03:08:05.653Z,58.20
2019-02-19T03:10:48.842Z,58.10
2019-02-19T03:13:31.303Z,57.10
2019-02-19T03:16:11.646Z,57.30
2019-02-19T03:18:51.085Z,56.20
2019-02-19T03:21:38.592Z,55.00
2019-02-19T03:24:18.879Z,56.20
2019-02-19T03:27:00.092Z,55.30
2019-02-19T03:29:40.692Z,56.60
2019-02-19T03:32:23.254Z,55.60
2019-02-19T03:35:05.361Z,52.80
2019-02-19T03:37:49.214Z,53.30
2019-02-19T03:40:30.491Z,52.80
2019-02-19T03:43:11.284Z,53.60
2019-02-19T03:45:53.010Z,54.10
2019-02-19T03:48:32.623Z,54.10
2019-02-19T03:51:18.484Z,52.30
2019-02-19T03:54:00.963Z,54.50
2019-02-19T03:56:42.742Z,54.20
2019-02-19T03:59:30.110Z,56.00
2019-02-19T04:02:10.434Z,57.60
2019-02-19T04:04:55.089Z,56.20
2019-02-19T04:07:46.752Z,54.90
2019-02-19T04:10:28.839Z,55.70
2019-02-19T04:13:06.588Z,56.40
2019-02-19T04:15:48.187Z,56.80
2019-02-19T04:18:33.105Z,58.90
2019-02-19T04:21:16.148Z,56.20
2019-02-19T04:23:57.831Z,53.80
2019-02-19T04:26:37.199Z,52.60
2019-02-19T04:29:17.158Z,53.70
2019-02-19T04:31:59.824Z,55.90
2019-02-19T04:34:39.600Z,54.60
2019-02-19T04:37:19.497Z,56.10
2019-02-19T04:40:10.010Z,55.90
2019-02-19T04:42:51.035Z,56.10
2019-02-19T04:45:38.091Z,57.20
2019-02-19T04:48:23.014Z,58.30
2019-02-19T04:51:04.777Z,57.20
2019-02-19T04:53:57.629Z,56.30
2019-02-19T04:56:40.541Z,55.30
2019-02-19T04:59:21.807Z,55.50
2019-02-19T05:02:10.748Z,56.60
2019-02-19T05:04:56.512Z,56.60
2019-02-19T05:07:40.623Z,57.00
2019-02-19T05:10:25.537Z,57.60
2019-02-19T05:13:06.637Z,54.60
2019-02-19T05:15:47.299Z,54.80
2019-02-19T05:18:27.731Z,53.50
2019-02-19T05:21:07.523Z,51.80
2019-02-19T05:23:52.186Z,50.30
2019-02-19T05:26:34.611Z,51.50
2019-02-19T05:29:16.824Z,53.50
2019-02-19T05:31:56.875Z,53.90
2019-02-19T05:34:45.310Z,54.30
2019-02-19T05:37:25.232Z,53.80
2019-02-19T05:40:06.338Z,53.40
2019-02-19T05:42:48.936Z,53.50
2019-02-19T05:45:30.627Z,53.20
2019-02-19T05:48:11.495Z,53.20
2019-02-19T05:50:51.302Z,51.90
2019-02-19T05:53:33.533Z,50.90
2019-02-19T05:56:16.796Z,49.20
2019-02-19T05:58:57.633Z,48.40
2019-02-19T06:01:37.504Z,46.40
2019-02-19T06:04:17.282Z,49.70
2019-02-19T06:07:02.390Z,49.40
2019-02-19T06:09:42.316Z,49.50
2019-02-19T06:12:22.499Z,47.10
2019-02-19T06:15:03.003Z,48.00
2019-02-19T06:17:48.083Z,50.20
2019-02-19T06:20:31.581Z,49.60
2019-02-19T06:23:12.560Z,48.00
2019-02-19T06:25:53.369Z,47.60
2019-02-19T06:28:33.048Z,46.70
2019-02-19T06:31:12.476Z,46.80
2019-02-19T06:33:54.515Z,44.70
2019-02-19T06:36:34.113Z,46.60
2019-02-19T06:39:15.714Z,44.60
2019-02-19T06:41:56.510Z,44.10
2019-02-19T06:44:39.871Z,46.90
2019-02-19T06:47:22.451Z,45.50
2019-02-19T06:50:03.915Z,44.30
2019-02-19T06:52:44.745Z,45.00
2019-02-19T06:55:25.864Z,45.10
2019-02-19T06:58:05.039Z,44.00
2019-02-19T07:00:51.045Z,45.90
2019-02-19T07:03:51.783Z,46.10
2019-02-19T07:06:34.005Z,43.60
2019-02-19T07:09:17.845Z,43.50
2019-02-19T07:12:11.614Z,45.10
2019-02-19T07:14:52.176Z,46.50
2019-02-19T07:17:32.513Z,44.60
2019-02-19T07:20:15.210Z,46.40
2019-02-19T07:22:58.679Z,46.60
2019-02-19T07:25:52.860Z,46.60
2019-02-19T07:28:33.116Z,44.50
2019-02-19T07:31:15.607Z,45.40
2019-02-19T07:33:55.488Z,42.40
2019-02-19T07:36:40.035Z,42.30
2019-02-19T07:39:23.338Z,46.80
2019-02-19T07:42:04.344Z,46.80
2019-02-19T07:44:45.675Z,45.50
2019-02-19T07:47:27.451Z,45.50
2019-02-19T07:50:10.700Z,42.90
2019-02-19T07:52:54.458Z,43.20
2019-02-19T07:55:35.265Z,44.80
2019-02-19T07:58:21.089Z,45.40
2019-02-19T08:01:01.551Z,45.30
2019-02-19T08:03:44.992Z,46.90
2019-02-19T08:06:26.047Z,48.10
2019-02-19T08:09:07.187Z,47.90
2019-02-19T08:11:51.066Z,49.90
2019-02-19T08:14:31.779Z,51.30
2019-02-19T08:17:22.510Z,53.10
2019-02-19T08:20:03.978Z,54.30
2019-02-19T08:22:45.821Z,54.50
2019-02-19T08:25:33.758Z,52.30
2019-02-19T08:28:13.387Z,52.00
2019-02-19T08:30:52.966Z,53.40
2019-02-19T08:33:34.514Z,53.80
2019-02-19T08:36:17.080Z,53.10
2019-02-19T08:38:58.130Z,53.20
2019-02-19T08:41:37.994Z,53.00
2019-02-19T08:44:20.265Z,52.70
2019-02-19T08:46:57.338Z,53.30
2019-02-19T08:49:41.270Z,51.70
2019-02-19T08:52:23.004Z,52.50
2019-02-19T08:55:02.655Z,54.10
2019-02-19T08:57:43.620Z,54.90
2019-02-19T09:00:24.580Z,55.30
2019-02-19T09:03:04.151Z,56.50
2019-02-19T09:05:44.082Z,55.60
2019-02-19T09:08:28.605Z,56.60
2019-02-19T09:11:07.849Z,56.00
2019-02-19T09:13:49.599Z,55.30
2019-02-19T09:16:28.691Z,55.00
2019-02-19T09:19:11.176Z,57.10
2019-02-19T09:21:51.012Z,57.40
2019-02-19T09:24:30.139Z,56.80
2019-02-19T09:27:31.913Z,56.40
2019-02-19T09:30:15.887Z,57.10
2019-02-19T09:32:54.703Z,58.30
2019-02-19T09:35:34.709Z,58.70
2019-02-19T09:38:14.970Z,58.20
2019-02-19T09:40:54.147Z,58.40
2019-02-19T09:43:35.426Z,57.70
2019-02-19T09:46:14.653Z,57.60
2019-02-19T09:48:54.695Z,58.60
2019-02-19T09:51:33.512Z,58.70
2019-02-19T09:54:14.744Z,59.50
2019-02-19T09:56:53.660Z,60.00
2019-02-19T09:59:35.393Z,59.60
2019-02-19T10:02:14.552Z,59.60
2019-02-19T10:04:55.236Z,60.40
2019-02-19T10:07:37.926Z,60.40
2019-02-19T10:10:21.526Z,59.90
2019-02-19T10:13:01.449Z,60.20
2019-02-19T10:15:43.110Z,60.50
2019-02-19T10:18:22.187Z,61.10
2019-02-19T10:21:02.379Z,62.20
2019-02-19T10:23:43.043Z,63.30
2019-02-19T10:26:22.047Z,63.10
2019-02-19T10:29:01.205Z,62.80
2019-02-19T10:31:43.358Z,64.10
2019-02-19T10:34:24.183Z,64.80
2019-02-19T10:37:04.552Z,65.30
2019-02-19T10:39:44.387Z,64.00
2019-02-19T10:42:23.760Z,64.10
2019-02-19T10:45:02.898Z,65.30
2019-02-19T10:47:43.994Z,67.30
2019-02-19T10:50:23.164Z,65.90
2019-02-19T10:53:03.402Z,65.70
2019-02-19T10:55:42.460Z,67.00
2019-02-19T10:58:23.827Z,67.10
2019-02-19T11:01:02.988Z,67.70
2019-02-19T11:03:42.278Z,68.10
2019-02-19T11:06:22.109Z,67.40
2019-02-19T11:09:02.462Z,67.40
2019-02-19T11:11:42.959Z,67.80
2019-02-19T11:14:23.522Z,68.60
2019-02-19T11:17:03.043Z,67.80
2019-02-19T11:19:42.145Z,68.50
2019-02-19T11:22:21.466Z,68.50
2019-02-19T11:25:01.515Z,69.00
2019-02-19T11:27:43.221Z,69.80
2019-02-19T11:30:22.856Z,70.50
2019-02-19T11:33:03.380Z,70.80
2019-02-19T11:35:45.676Z,70.70
2019-02-19T11:38:22.260Z,69.10
2019-02-19T11:41:00.809Z,69.10
2019-02-19T11:43:39.741Z,68.70
2019-02-19T11:46:20.436Z,68.50
2019-02-19T11:49:00.620Z,67.80
2019-02-19T11:51:40.505Z,68.20
2019-02-19T11:54:19.749Z,68.90
2019-02-19T11:56:58.859Z,69.10
2019-02-19T11:59:38.929Z,69.50
2019-02-19T12:02:21.681Z,69.60
2019-02-19T12:05:00.895Z,69.40
2019-02-19T12:07:40.456Z,69.20
2019-02-19T12:10:19.490Z,68.90
2019-02-19T12:12:58.662Z,68.80
2019-02-19T12:15:38.498Z,69.20
2019-02-19T12:18:17.670Z,70.30
2019-02-19T12:20:58.838Z,70.40
2019-02-19T12:23:38.356Z,70.40
2019-02-19T12:26:22.016Z,69.90
2019-02-19T12:29:02.823Z,69.80
2019-02-19T12:31:43.144Z,70.30
2019-02-19T12:34:22.551Z,69.80
2019-02-19T12:37:02.780Z,68.80
2019-02-19T12:39:42.756Z,69.60
2019-02-19T12:42:23.975Z,70.30
2019-02-19T12:45:04.435Z,70.60
2019-02-19T12:47:45.264Z,71.00
2019-02-19T12:50:24.409Z,71.60
2019-02-19T12:53:03.618Z,72.20
2019-02-19T12:55:43.709Z,72.60
2019-02-19T12:58:45.880Z,72.60
2019-02-19T13:02:01.893Z,73.10
2019-02-19T13:04:42.567Z,72.90
2019-02-19T13:07:24.963Z,72.40
2019-02-19T13:10:07.476Z,71.90
2019-02-19T13:13:02.344Z,71.60
2019-02-19T13:15:58.905Z,71.60
2019-02-19T13:19:03.272Z,71.40
2019-02-19T13:21:38.701Z,71.30
2019-02-19T13:24:52.608Z,71.20
2019-02-19T13:27:49.528Z,71.30
2019-02-19T13:30:45.723Z,70.90
2019-02-19T13:33:24.793Z,70.10
2019-02-19T13:36:24.310Z,70.40
2019-02-19T13:39:37.278Z,71.30
2019-02-19T13:43:07.399Z,71.70
2019-02-19T13:46:12.036Z,71.30
2019-02-19T13:49:40.964Z,71.50
2019-02-19T13:52:53.255Z,71.20
2019-02-19T13:55:58.511Z,71.80
2019-02-19T13:58:56.495Z,72.40
2019-02-19T14:01:54.764Z,72.90
2019-02-19T14:04:50.691Z,72.60
2019-02-19T14:07:47.954Z,73.50
2019-02-19T14:10:30.078Z,73.40
2019-02-19T14:13:09.549Z,73.30
2019-02-19T14:16:22.897Z,72.50
2019-02-19T14:19:25.985Z,73.00
2019-02-19T14:22:49.968Z,73.20
2019-02-19T14:26:20.103Z,73.20
2019-02-19T14:29:35.431Z,73.60
2019-02-19T14:33:05.082Z,73.40
2019-02-19T14:36:04.639Z,74.60
2019-02-19T14:39:02.676Z,75.20
2019-02-19T14:42:01.992Z,74.20
2019-02-19T14:44:59.040Z,74.80
2019-02-19T14:48:13.099Z,75.40
2019-02-19T14:51:22.438Z,75.60
2019-02-19T14:54:24.291Z,74.70
2019-02-19T14:57:20.624Z,75.20
2019-02-19T15:00:45.942Z,74.70
2019-02-19T15:04:01.215Z,75.00
2019-02-19T15:07:14.041Z,74.10
2019-02-19T15:10:35.460Z,74.40
2019-02-19T15:13:44.119Z,74.30
2019-02-19T15:17:00.589Z,74.70
2019-02-19T15:20:14.036Z,73.90
2019-02-19T15:23:30.544Z,73.90
2019-02-19T15:26:43.971Z,74.40
2019-02-19T15:29:42.866Z,74.50
2019-02-19T15:32:41.049Z,74.10
2019-02-19T15:35:55.632Z,75.00
2019-02-19T15:39:35.895Z,74.60
2019-02-19T15:42:56.499Z,74.40
2019-02-19T15:46:27.115Z,74.80
2019-02-19T15:49:47.347Z,76.10
2019-02-19T15:52:50.343Z,75.90
2019-02-19T15:55:55.366Z,75.80
2019-02-19T15:59:01.719Z,75.60
2019-02-19T16:01:54.540Z,77.00
2019-02-19T16:04:59.218Z,78.00
2019-02-19T16:07:50.940Z,76.70
2019-02-19T16:10:43.846Z,75.80
2019-02-19T16:13:32.177Z,76.40
2019-02-19T16:16:34.233Z,76.70
2019-02-19T16:19:46.974Z,76.90
2019-02-19T16:23:00.914Z,76.90
2019-02-19T16:25:52.042Z,76.30
2019-02-19T16:31:35.009Z,76.20
2019-02-19T16:34:45.576Z,75.40
2019-02-19T16:37:47.222Z,75.90
2019-02-19T16:40:42.772Z,76.70
2019-02-19T16:43:38.187Z,76.10
2019-02-19T16:46:41.568Z,75.60
2019-02-19T16:49:38.139Z,75.90
2019-02-19T16:52:29.099Z,76.90
2019-02-19T16:55:36.649Z,77.00
2019-02-19T16:58:30.681Z,76.40
2019-02-19T17:01:27.973Z,76.20
2019-02-19T17:04:23.113Z,76.70
2019-02-19T17:07:13.661Z,76.70
2019-02-19T17:10:22.893Z,76.80
2019-02-19T17:13:19.867Z,75.50
2019-02-19T17:16:37.150Z,76.20
2019-02-19T17:19:43.643Z,76.40
2019-02-19T17:22:52.675Z,76.00
2019-02-19T17:25:52.905Z,76.00
2019-02-19T17:28:48.751Z,76.50
2019-02-19T17:31:54.887Z,76.90
2019-02-19T17:34:55.218Z,77.70
2019-02-19T17:38:14.261Z,76.50
2019-02-19T17:41:02.941Z,77.30
2019-02-19T17:44:00.087Z,77.70
2019-02-19T17:47:06.082Z,77.20
2019-02-19T17:50:12.224Z,77.30
2019-02-19T17:53:10.806Z,78.10
2019-02-19T17:56:10.678Z,78.50
2019-02-19T17:59:08.084Z,78.50
2019-02-19T18:02:08.843Z,78.40
2019-02-19T18:05:05.466Z,78.60
2019-02-19T18:08:03.383Z,79.60
2019-02-19T18:11:05.299Z,80.00
2019-02-19T18:14:20.650Z,79.50
2019-02-19T18:17:14.891Z,79.40
2019-02-19T18:20:15.894Z,80.00
2019-02-19T18:22:55.853Z,80.80
2019-02-19T18:25:40.286Z,79.90
2019-02-19T18:28:24.458Z,79.30
2019-02-19T18:31:04.526Z,79.30
2019-02-19T18:33:52.532Z,80.30
2019-02-19T18:36:32.784Z,80.20
2019-02-19T18:39:13.323Z,79.70
2019-02-19T18:42:06.291Z,79.40
2019-02-19T18:44:46.599Z,79.90
2019-02-19T18:47:30.994Z,80.60
2019-02-19T18:50:26.288Z,80.40
2019-02-19T18:53:06.527Z,80.20
2019-02-19T18:55:45.261Z,80.20
2019-02-19T18:58:29.350Z,79.90
2019-02-19T19:01:12.693Z,79.90
2019-02-19T19:03:51.815Z,80.00
2019-02-19T19:06:30.916Z,80.40
2019-02-19T19:09:10.907Z,80.40
2019-02-19T19:11:51.139Z,80.30
2019-02-19T19:14:31.645Z,81.00
2019-02-19T19:17:10.770Z,80.60
2019-02-19T19:19:49.462Z,81.40
2019-02-19T19:22:28.323Z,81.00
2019-02-19T19:25:08.602Z,80.40
2019-02-19T21:28:16.138Z,80.90
2019-02-19T21:30:55.685Z,79.70
2019-02-19T21:33:35.296Z,79.90
2019-02-19T21:36:14.564Z,80.50
2019-02-19T21:38:54.214Z,80.70
2019-02-19T21:41:33.556Z,80.30
2019-02-19T21:44:12.551Z,79.30
2019-02-19T21:46:51.705Z,78.90
2019-02-19T21:49:33.381Z,79.60
2019-02-19T21:52:12.453Z,79.90
2019-02-19T21:54:51.587Z,80.00
2019-02-19T21:57:31.527Z,79.80
2019-02-19T22:00:13.479Z,80.70
2019-02-19T22:02:55.165Z,80.50
2019-02-19T22:05:34.382Z,80.80
2019-02-19T22:08:13.170Z,80.90
2019-02-19T22:10:53.901Z,80.20
2019-02-19T22:13:32.925Z,80.40
2019-02-19T22:16:11.779Z,81.10
2019-02-19T22:18:50.941Z,81.00
2019-02-19T22:21:35.736Z,80.80
2019-02-19T22:24:14.893Z,80.40
2019-02-19T22:26:54.152Z,80.60
2019-02-19T22:29:33.304Z,80.40
2019-02-19T22:32:12.822Z,80.60
2019-02-19T22:34:53.530Z,81.40
2019-02-19T22:37:32.566Z,81.20
2019-02-19T22:40:12.613Z,81.00
2019-02-19T22:42:52.025Z,80.40
2019-02-19T22:45:30.876Z,80.70
2019-02-19T22:48:09.889Z,80.80
2019-02-19T22:50:52.081Z,81.00
2019-02-19T22:53:55.788Z,80.20
2019-02-19T22:56:40.268Z,79.50
2019-02-19T22:59:19.499Z,80.20
2019-02-19T23:02:15.471Z,81.50
2019-02-19T23:04:54.783Z,81.50
2019-02-19T23:07:34.918Z,80.70
2019-02-19T23:10:13.970Z,80.20
2019-02-19T23:12:53.002Z,81.30
2019-02-19T23:15:32.159Z,81.90
2019-02-19T23:18:11.513Z,81.50
2019-02-19T23:20:50.645Z,80.60
2019-02-19T23:23:29.886Z,80.70
2019-02-19T23:26:09.135Z,81.60
2019-02-19T23:28:48.951Z,81.80
2019-02-19T23:31:31.674Z,81.20
2019-02-19T23:34:11.456Z,81.00
2019-02-19T23:36:57.377Z,80.70
2019-02-19T23:39:43.579Z,81.40
2019-02-19T23:42:19.126Z,81.40
2019-02-19T23:44:58.011Z,81.50
2019-02-19T23:47:37.116Z,80.60
2019-02-19T23:50:16.113Z,80.60
2019-02-19T23:52:55.024Z,80.70
2019-02-19T23:55:34.765Z,81.00
2019-02-19T23:58:13.677Z,81.40
